Latest Weather Observations for Moorabbin Airport

IDV60801

Issued at 6:31 pm EST Thursday 3 September 2015 (issued every 30 minutes, with the page automatically refreshed every 10 minutes)

About weather observations | Map of weather stations | Latest weather observations for VIC | Other Formats
Station Details ID: 086077 Name: MOORABBIN AIRPORT Lat: -37.98 Lon: 145.10 Height: 12.1 m
Data from the previous 72 hours. | See also: Recent months at Moorabbin Airport
Date/Time
EST
Temp
°C
App
Temp
°C
Dew
Point
Rel
Hum
%
Delta-T
°C
Wind Press
QNH
hPa
Press
MSL
hPa
Rain
since 9 am
mm
Dir
 
Spd
km/h
Gust
km/h
Spd
kts
Gust
kts
03/06:30pm 10.0 6.5 5.4 73 2.1 S 13 19 7 10 1020.6 1020.6 0.0
03/06:00pm 10.9 6.2 6.1 72 2.2 S 20 28 11 15 1020.2 1020.2 0.0
03/05:30pm 11.4 6.0 6.5 72 2.3 SSW 24 32 13 17 1019.6 1019.6 0.0
03/05:00pm 11.8 6.5 6.9 72 2.3 SSW 24 35 13 19 1019.0 1019.0 0.0
03/04:30pm 11.9 6.3 7.0 72 2.3 SSW 26 37 14 20 1018.4 1018.4 0.0
03/04:00pm 12.9 7.2 8.2 73 2.3 SW 28 41 15 22 1018.1 1018.1 0.0
03/03:30pm 12.6 7.3 8.3 75 2.1 SW 26 37 14 20 1017.6 1017.6 0.0
03/03:00pm 13.1 7.0 8.2 72 2.4 SSW 30 39 16 21 1017.0 1017.0 0.0
03/02:30pm 13.5 8.3 9.0 74 2.3 SW 26 33 14 18 1016.5 1016.5 0.0
03/02:00pm 13.0 8.3 9.1 77 2.0 SW 24 33 13 18 1016.1 1016.1 0.0
03/01:30pm 12.6 8.0 9.6 82 1.5 SW 24 33 13 18 1016.1 1016.1 0.0
03/01:00pm 12.6 9.0 9.8 83 1.4 SW 19 24 10 13 1016.0 1016.0 0.0
03/12:30pm 13.1 10.2 9.5 79 1.8 SSW 15 20 8 11 1015.8 1015.8 0.0
03/12:00pm 13.3 9.6 9.4 77 2.0 S 19 26 10 14 1015.6 1015.6 0.0
03/11:30am 13.0 10.1 9.8 81 1.6 S 15 19 8 10 1015.3 1015.3 0.0
03/11:00am 13.0 9.7 9.6 80 1.7 S 17 24 9 13 1015.0 1015.0 0.0
03/10:30am 13.0 9.7 9.4 79 1.8 S 17 24 9 13 1014.5 1014.5 0.0
03/10:00am 13.3 10.7 9.5 78 1.9 S 13 19 7 10 1013.9 1013.9 0.0
03/09:30am 13.6 10.2 9.1 74 2.3 S 17 24 9 13 1013.4 1013.4 0.0
03/09:00am 13.7 10.8 9.6 76 2.1 S 15 22 8 12 1012.6 1012.6 3.8
03/08:30am 13.2 10.8 10.0 81 1.6 S 13 20 7 11 1012.0 1012.0 3.8
03/08:00am 12.0 10.7 10.1 88 1.0 SSE 7 11 4 6 1011.4 1011.4 3.8
03/07:30am 11.2 9.7 9.3 88 1.0 S 7 9 4 5 1010.9 1010.9 3.8
03/07:00am 10.9 9.3 8.8 87 1.0 S 7 11 4 6 1010.2 1010.2 3.8
03/06:30am 10.8 9.2 8.9 88 0.9 SSE 7 9 4 5 1009.6 1009.6 3.8
03/06:00am 10.7 8.9 9.5 92 0.6 SSE 9 11 5 6 1009.1 1009.1 3.8
03/05:30am 10.3 9.0 9.2 93 0.5 SW 6 7 3 4 1008.8 1008.8 3.8
03/05:00am 10.6 10.5 9.4 92 0.6 CALM 0 0 0 0 1008.5 1008.5 3.8
03/04:30am 10.6 10.4 9.0 90 0.8 CALM 0 0 0 0 1008.2 1008.2 3.8
03/04:00am 10.6 10.4 8.9 89 0.8 CALM 0 0 0 0 1007.8 1007.8 3.8
03/03:30am 10.7 9.3 8.8 88 0.9 SSE 6 7 3 4 1007.6 1007.6 3.8
03/03:00am 10.8 8.5 8.9 88 0.9 S 11 13 6 7 1007.4 1007.4 3.8
03/02:30am 10.5 8.7 9.3 92 0.6 S 9 13 5 7 1007.5 1007.5 3.6
03/02:00am 10.6 9.2 9.5 93 0.6 S 7 9 4 5 1007.7 1007.7 3.6
03/01:30am 10.6 10.5 9.4 92 0.6 CALM 0 0 0 0 1007.7 1007.7 3.6
03/01:00am 10.8 10.7 9.4 91 0.7 CALM 0 0 0 0 1007.5 1007.5 3.6
03/12:30am 10.7 10.2 9.5 92 0.6 ESE 2 6 1 3 1007.4 1007.4 3.6
03/12:00am 10.6 10.5 9.4 92 0.6 CALM 0 0 0 0 1007.4 1007.4 3.6
 
Date/Time
EST
Temp
°C
App
Temp
°C
Dew
Point
Rel
Hum
%
Delta-T
°C
Wind Press
QNH
hPa
Press
MSL
hPa
Rain
since 9 am
mm
Dir
 
Spd
km/h
Gust
km/h
Spd
kts
Gust
kts
02/11:30pm 11.0 10.6 9.8 92 0.6 E 2 6 1 3 1007.5 1007.5 3.6
02/11:00pm 11.0 11.0 9.8 92 0.6 CALM 0 0 0 0 1007.6 1007.6 3.6
02/10:30pm 11.2 9.9 9.8 91 0.7 E 7 9 4 5 1007.9 1007.9 3.6
02/10:00pm 11.2 9.0 9.5 89 0.9 ESE 11 13 6 7 1008.1 1008.1 3.4
02/09:30pm 11.4 9.6 9.3 87 1.1 ESE 9 11 5 6 1008.3 1008.3 3.4
02/09:00pm 11.8 9.1 9.0 83 1.4 ENE 13 17 7 9 1008.5 1008.5 3.2
02/08:30pm 12.0 9.7 9.0 82 1.5 ENE 11 13 6 7 1008.7 1008.7 2.8
02/08:00pm 12.2 10.8 9.4 83 1.4 NNE 7 9 4 5 1008.7 1008.7 2.2
02/07:30pm 12.6 10.3 9.1 79 1.8 NNW 11 13 6 7 1008.7 1008.7 1.4
02/07:00pm 13.3 10.5 8.4 72 2.4 N 13 15 7 8 1008.4 1008.4 0.6
02/06:30pm 14.6 11.5 7.2 61 3.6 NNE 13 20 7 11 1008.0 1008.0 0.2
02/06:00pm 15.7 11.6 6.2 53 4.6 NNE 17 28 9 15 1007.8 1007.8 0.2
02/05:30pm 16.4 13.2 5.1 47 5.4 NNE 11 32 6 17 1007.5 1007.5 0.0
02/05:00pm 16.3 14.5 7.8 57 4.3 NNE 7 11 4 6 1007.0 1007.0 0.0
02/04:30pm 16.8 13.5 6.3 50 5.1 NE 13 17 7 9 1006.9 1006.9 0.0
02/04:00pm 17.2 13.4 5.8 47 5.6 NNE 15 20 8 11 1006.7 1006.7 0.0
02/03:30pm 17.3 12.5 5.6 46 5.7 NE 20 28 11 15 1006.7 1006.7 0.0
02/03:00pm 17.5 12.4 5.8 46 5.7 NE 22 28 12 15 1006.9 1006.9 0.0
02/02:30pm 17.7 13.0 5.9 46 5.8 N 20 28 11 15 1007.3 1007.3 0.0
02/02:00pm 18.4 14.4 6.6 46 5.9 NNE 17 28 9 15 1007.9 1007.9 0.0
02/01:30pm 16.8 12.1 6.0 49 5.3 NNE 20 26 11 14 1008.5 1008.5 0.0
02/01:00pm 16.4 11.2 5.7 49 5.2 NNE 22 28 12 15 1009.3 1009.3 0.0
02/12:30pm 16.8 10.6 6.3 50 5.1 N 28 37 15 20 1009.8 1009.8 0.0
02/12:00pm 16.7 10.4 5.9 49 5.2 NNE 28 37 15 20 1010.1 1010.1 0.0
02/11:30am 15.5 9.8 6.5 55 4.4 NNE 26 37 14 20 1010.7 1010.7 0.0
02/11:00am 14.6 8.7 5.7 55 4.2 NNE 26 35 14 19 1011.1 1011.1 0.0
02/10:30am 14.6 8.3 5.7 55 4.2 N 28 41 15 22 1011.2 1011.2 0.0
02/10:00am 14.5 8.6 5.6 55 4.2 N 26 37 14 20 1011.5 1011.5 0.0
02/09:45am 14.4 8.1 5.5 55 4.2 N 28 48 15 26 1011.6 1011.6 0.0
02/09:30am 14.7 8.8 5.8 55 4.2 NNE 26 39 14 21 1011.9 1011.9 0.0
02/09:00am 13.2 6.8 5.4 59 3.6 NNE 28 37 15 20 1012.1 1012.1 0.0
02/08:30am 12.9 7.0 5.6 61 3.4 N 26 35 14 19 1012.1 1012.1 0.0
02/08:00am 12.3 6.7 5.5 63 3.2 NNE 24 33 13 18 1012.0 1012.0 0.0
02/07:30am 11.1 5.8 4.8 65 2.9 N 22 28 12 15 1012.2 1012.2 0.0
02/07:00am 11.0 6.0 4.7 65 2.8 N 20 26 11 14 1012.2 1012.2 0.0
02/06:30am 10.6 5.6 4.5 66 2.7 NNE 20 26 11 14 1012.1 1012.1 0.0
02/06:00am 10.6 5.8 4.5 66 2.7 N 19 24 10 13 1012.3 1012.3 0.0
02/05:30am 10.1 5.3 4.5 68 2.5 N 19 24 10 13 1012.3 1012.3 0.0
02/05:00am 9.9 5.5 4.5 69 2.4 N 17 20 9 11 1012.3 1012.3 0.0
02/04:30am 9.9 5.5 4.5 69 2.4 N 17 20 9 11 1012.3 1012.3 0.0
02/04:00am 10.0 5.5 4.4 68 2.5 NNE 17 22 9 12 1012.3 1012.3 0.0
02/03:30am 9.6 5.4 4.0 68 2.5 N 15 19 8 10 1012.4 1012.4 0.0
02/03:00am 9.5 5.3 3.7 67 2.5 N 15 20 8 11 1012.5 1012.5 0.0
02/02:30am 9.2 5.3 3.6 68 2.4 N 13 17 7 9 1012.9 1012.9 0.0
02/02:00am 9.4 6.3 3.6 67 2.5 N 9 11 5 6 1013.3 1013.3 0.0
02/01:30am 8.9 5.0 3.5 69 2.3 N 13 19 7 10 1013.3 1013.3 0.0
02/01:00am 9.2 4.6 3.8 69 2.4 N 17 20 9 11 1013.3 1013.3 0.0
02/12:30am 8.9 5.1 3.9 71 2.2 N 13 15 7 8 1013.4 1013.4 0.0
02/12:00am 9.3 5.2 4.1 70 2.3 NNE 15 20 8 11 1013.4 1013.4 0.0
 
Date/Time
EST
Temp
°C
App
Temp
°C
Dew
Point
Rel
Hum
%
Delta-T
°C
Wind Press
QNH
hPa
Press
MSL
hPa
Rain
since 9 am
mm
Dir
 
Spd
km/h
Gust
km/h
Spd
kts
Gust
kts
01/11:30pm 9.6 5.2 4.8 72 2.1 NNE 17 20 9 11 1013.6 1013.6 0.0
01/11:00pm 9.9 5.1 4.9 71 2.2 NNE 19 24 10 13 1013.9 1013.9 0.0
01/10:30pm 8.3 5.4 4.9 79 1.5 NNE 9 13 5 7 1014.2 1014.2 0.0
01/10:00pm 8.1 5.3 5.0 81 1.4 N 9 11 5 6 1014.5 1014.5 0.0
01/09:30pm 7.9 5.5 4.3 78 1.6 N 6 7 3 4 1014.4 1014.4 0.0
01/09:00pm 8.1 5.7 4.1 76 1.7 ESE 6 7 3 4 1014.4 1014.4 0.0
01/08:30pm 8.3 5.6 3.8 73 1.9 E 7 9 4 5 1014.1 1014.1 0.0
01/08:00pm 9.6 6.3 4.8 72 2.1 E 11 13 6 7 1014.0 1014.0 0.0
01/07:30pm 9.7 6.8 4.7 71 2.2 E 9 13 5 7 1013.9 1013.9 0.0
01/07:00pm 9.7 6.4 4.7 71 2.2 ESE 11 13 6 7 1013.9 1013.9 0.0
01/06:30pm 9.7 6.4 4.7 71 2.2 ESE 11 13 6 7 1013.7 1013.7 0.0
01/06:00pm 10.7 7.5 5.0 68 2.6 SE 11 15 6 8 1013.4 1013.4 0.0
01/05:30pm 11.5 8.6 4.9 64 3.0 SE 9 11 5 6 1013.2 1013.2 0.0
01/05:00pm 12.6 9.6 6.0 64 3.1 SE 11 15 6 8 1013.0 1013.0 0.0
01/04:30pm 12.6 9.1 5.3 61 3.4 SSW 13 17 7 9 1013.4 1013.4 0.0
01/04:00pm 12.8 8.9 5.5 61 3.4 SW 15 20 8 11 1013.5 1013.5 0.0
01/03:30pm 12.6 8.3 5.3 61 3.4 SW 17 20 9 11 1013.7 1013.7 0.0
01/03:00pm 13.0 8.7 5.4 60 3.5 SW 17 20 9 11 1013.9 1013.9 0.0
01/02:30pm 12.6 8.6 4.8 59 3.6 S 15 19 8 10 1013.8 1013.8 0.0
01/02:00pm 12.2 8.5 4.4 59 3.5 S 13 19 7 10 1014.3 1014.3 0.0
01/01:30pm 12.4 9.2 5.3 62 3.3 S 11 17 6 9 1014.9 1014.9 0.0
01/01:00pm 11.7 8.4 4.4 61 3.3 SSW 11 15 6 8 1015.5 1015.5 0.0
01/12:30pm 11.1 6.9 3.9 61 3.2 SSW 15 20 8 11 1016.2 1016.2 0.0
01/12:00pm 11.0 6.5 4.0 62 3.1 SW 17 20 9 11 1016.9 1016.9 0.0
01/11:30am 10.9 6.4 4.4 64 2.9 SW 17 20 9 11 1017.2 1017.2 0.0
01/11:00am 11.2 8.6 3.3 58 3.5 SW 6 9 3 5 1017.2 1017.2 0.0
01/10:30am 11.2 8.7 3.5 59 3.4 N 6 13 3 7 1017.2 1017.2 0.0
01/10:00am 10.7 8.6 3.7 62 3.1 WNW 4 9 2 5 1017.3 1017.3 0.0
01/09:30am 10.5 8.4 3.8 63 3.0 NNW 4 7 2 4 1017.4 1017.4 0.0
01/09:00am 9.3 6.7 4.1 70 2.3 NNW 7 11 4 6 1017.5 1017.5 0.0
01/08:30am 8.5 5.9 4.1 74 1.9 NNW 7 9 4 5 1017.6 1017.6 0.0
01/08:00am 7.4 5.0 4.5 82 1.3 NNW 6 9 3 5 1017.3 1017.3 0.0
01/07:30am 5.4 3.2 3.1 85 0.9 NNE 4 6 2 3 1017.1 1017.1 0.0
01/07:00am 4.3 1.4 1.7 83 1.0 NE 6 7 3 4 1016.9 1016.9 0.0
01/06:30am 4.3 1.8 1.3 81 1.2 SE 4 7 2 4 1016.8 1016.8 0.0
01/06:00am 5.1 3.3 1.0 75 1.6 CALM 0 0 0 0 1016.6 1016.6 0.0
01/05:30am 6.2 4.1 1.5 72 1.9 E 2 6 1 3 1016.7 1016.7 0.0
01/05:00am 6.6 3.5 1.3 69 2.1 SE 7 7 4 4 1016.8 1016.8 0.0
01/04:30am 8.3 5.6 2.8 68 2.3 S 6 7 3 4 1016.8 1016.8 0.0
01/04:00am 9.0 6.4 3.0 66 2.6 SSW 6 7 3 4 1017.0 1017.0 0.0
01/03:30am 9.4 6.5 2.7 63 2.8 ENE 7 9 4 5 1017.2 1017.2 0.0
01/03:00am 9.7 7.3 2.1 59 3.2 ENE 4 9 2 5 1017.4 1017.4 0.0
01/02:30am 9.6 6.6 2.2 60 3.1 ESE 7 9 4 5 1017.6 1017.6 0.0
01/02:00am 9.5 6.6 2.8 63 2.9 S 7 9 4 5 1018.1 1018.1 0.0
01/01:30am 9.5 6.9 4.3 70 2.3 S 7 9 4 5 1018.4 1018.4 0.0
01/01:00am 9.5 7.1 4.3 70 2.3 SSW 6 7 3 4 1018.6 1018.6 0.0
01/12:30am 9.6 7.2 4.4 70 2.3 S 6 7 3 4 1018.6 1018.6 0.0
01/12:00am 9.8 7.8 4.2 68 2.5 S 4 11 2 6 1018.5 1018.5 0.0
 
Date/Time
EST
Temp
°C
App
Temp
°C
Dew
Point
Rel
Hum
%
Delta-T
°C
Wind Press
QNH
hPa
Press
MSL
hPa
Rain
since 9 am
mm
Dir
 
Spd
km/h
Gust
km/h
Spd
kts
Gust
kts
31/11:30pm 9.9 6.5 4.1 67 2.6 SSW 11 13 6 7 1018.6 1018.6 0.0
31/11:00pm 9.8 7.4 4.2 68 2.5 SSE 6 9 3 5 1018.8 1018.8 0.0
31/10:30pm 9.8 6.8 4.2 68 2.5 S 9 11 5 6 1018.9 1018.9 0.0
31/10:00pm 10.0 7.4 4.0 66 2.6 SW 7 13 4 7 1019.1 1019.1 0.0
31/09:30pm 9.9 6.9 4.1 67 2.6 S 9 11 5 6 1019.1 1019.1 0.0
31/09:00pm 10.0 7.1 4.4 68 2.5 S 9 11 5 6 1019.2 1019.2 0.0
31/08:30pm 10.1 7.2 4.7 69 2.4 S 9 13 5 7 1019.3 1019.3 0.0
31/08:00pm 10.1 7.2 4.9 70 2.3 S 9 13 5 7 1019.2 1019.2 0.0
31/07:30pm 10.3 7.1 4.9 69 2.4 S 11 17 6 9 1019.0 1019.0 0.0
31/07:00pm 10.5 6.5 4.9 68 2.5 SSW 15 20 8 11 1018.9 1018.9 0.0

Other Formats:

Comma delimited format used in spreadsheet applications
http://www.bom.gov.au/fwo/IDV60801/IDV60801.94870.axf

JavaScript Object Notation format (JSON) in row-major order
http://www.bom.gov.au/fwo/IDV60801/IDV60801.94870.json